sensor_id;sensor_type;location;lat;lon;timestamp;P1;durP1;ratioP1;P2;durP2;ratioP2
18176;SDS011;9213;50.858;3.964;2023-05-07T00:00:36;10.85;;;6.65;;
18176;SDS011;9213;50.858;3.964;2023-05-07T00:03:03;10.40;;;6.80;;
18176;SDS011;9213;50.858;3.964;2023-05-07T00:05:30;14.10;;;7.43;;
18176;SDS011;9213;50.858;3.964;2023-05-07T00:07:58;11.77;;;6.40;;
18176;SDS011;9213;50.858;3.964;2023-05-07T00:10:26;9.00;;;6.90;;
18176;SDS011;9213;50.858;3.964;2023-05-07T00:12:52;11.93;;;6.80;;
18176;SDS011;9213;50.858;3.964;2023-05-07T00:15:19;11.97;;;6.30;;
18176;SDS011;9213;50.858;3.964;2023-05-07T00:17:46;13.87;;;6.70;;
18176;SDS011;9213;50.858;3.964;2023-05-07T00:20:13;12.10;;;6.50;;
18176;SDS011;9213;50.858;3.964;2023-05-07T00:22:40;11.43;;;6.87;;
18176;SDS011;9213;50.858;3.964;2023-05-07T00:25:09;12.83;;;7.00;;
18176;SDS011;9213;50.858;3.964;2023-05-07T00:27:36;11.45;;;6.90;;
18176;SDS011;9213;50.858;3.964;2023-05-07T00:30:03;14.38;;;7.28;;
18176;SDS011;9213;50.858;3.964;2023-05-07T00:32:31;10.55;;;7.63;;
18176;SDS011;9213;50.858;3.964;2023-05-07T00:34:58;10.85;;;6.45;;
18176;SDS011;9213;50.858;3.964;2023-05-07T00:37:25;12.52;;;7.05;;
18176;SDS011;9213;50.858;3.964;2023-05-07T00:39:52;13.27;;;6.55;;
18176;SDS011;9213;50.858;3.964;2023-05-07T00:42:20;11.63;;;6.87;;
18176;SDS011;9213;50.858;3.964;2023-05-07T00:44:47;11.27;;;7.20;;
18176;SDS011;9213;50.858;3.964;2023-05-07T00:47:14;9.87;;;6.73;;
18176;SDS011;9213;50.858;3.964;2023-05-07T00:49:42;10.20;;;6.80;;
18176;SDS011;9213;50.858;3.964;2023-05-07T00:52:11;9.63;;;7.10;;
18176;SDS011;9213;50.858;3.964;2023-05-07T00:54:40;8.50;;;6.53;;
18176;SDS011;9213;50.858;3.964;2023-05-07T00:57:08;16.03;;;7.00;;
18176;SDS011;9213;50.858;3.964;2023-05-07T00:59:37;11.47;;;6.40;;
18176;SDS011;9213;50.858;3.964;2023-05-07T01:02:05;11.47;;;6.43;;
18176;SDS011;9213;50.858;3.964;2023-05-07T01:04:32;10.20;;;6.30;;
18176;SDS011;9213;50.858;3.964;2023-05-07T01:07:00;10.27;;;6.43;;
18176;SDS011;9213;50.858;3.964;2023-05-07T01:09:28;11.93;;;6.47;;
18176;SDS011;9213;50.858;3.964;2023-05-07T01:11:55;8.53;;;5.93;;
18176;SDS011;9213;50.858;3.964;2023-05-07T01:14:23;11.47;;;6.47;;
18176;SDS011;9213;50.858;3.964;2023-05-07T01:16:52;12.50;;;6.73;;
18176;SDS011;9213;50.858;3.964;2023-05-07T01:19:19;11.03;;;6.77;;
18176;SDS011;9213;50.858;3.964;2023-05-07T01:21:47;12.30;;;6.50;;
18176;SDS011;9213;50.858;3.964;2023-05-07T01:24:16;9.67;;;6.00;;
18176;SDS011;9213;50.858;3.964;2023-05-07T01:26:44;9.90;;;6.07;;
18176;SDS011;9213;50.858;3.964;2023-05-07T01:29:11;12.13;;;6.57;;
18176;SDS011;9213;50.858;3.964;2023-05-07T01:31:38;10.77;;;6.47;;
18176;SDS011;9213;50.858;3.964;2023-05-07T01:34:08;15.33;;;6.97;;
18176;SDS011;9213;50.858;3.964;2023-05-07T01:36:37;12.80;;;6.23;;
18176;SDS011;9213;50.858;3.964;2023-05-07T01:39:06;12.13;;;6.77;;
18176;SDS011;9213;50.858;3.964;2023-05-07T01:41:34;12.00;;;7.30;;
18176;SDS011;9213;50.858;3.964;2023-05-07T01:44:01;11.53;;;5.90;;
18176;SDS011;9213;50.858;3.964;2023-05-07T01:46:30;10.87;;;5.73;;
18176;SDS011;9213;50.858;3.964;2023-05-07T01:48:58;9.83;;;5.87;;
18176;SDS011;9213;50.858;3.964;2023-05-07T01:51:25;8.63;;;5.53;;
18176;SDS011;9213;50.858;3.964;2023-05-07T01:53:53;10.43;;;6.40;;
18176;SDS011;9213;50.858;3.964;2023-05-07T01:56:20;10.40;;;6.23;;
18176;SDS011;9213;50.858;3.964;2023-05-07T01:58:48;15.57;;;7.27;;
18176;SDS011;9213;50.858;3.964;2023-05-07T02:01:17;11.63;;;5.93;;
18176;SDS011;9213;50.858;3.964;2023-05-07T02:03:44;13.73;;;6.77;;
18176;SDS011;9213;50.858;3.964;2023-05-07T02:06:11;12.37;;;6.30;;
18176;SDS011;9213;50.858;3.964;2023-05-07T02:08:38;10.33;;;6.60;;
18176;SDS011;9213;50.858;3.964;2023-05-07T02:11:05;11.57;;;6.17;;
18176;SDS011;9213;50.858;3.964;2023-05-07T02:13:32;16.13;;;7.83;;
18176;SDS011;9213;50.858;3.964;2023-05-07T02:16:02;14.23;;;6.37;;
18176;SDS011;9213;50.858;3.964;2023-05-07T02:18:29;10.23;;;6.30;;
18176;SDS011;9213;50.858;3.964;2023-05-07T02:20:56;11.70;;;6.90;;
18176;SDS011;9213;50.858;3.964;2023-05-07T02:23:23;9.17;;;5.87;;
18176;SDS011;9213;50.858;3.964;2023-05-07T02:25:50;10.13;;;6.40;;
18176;SDS011;9213;50.858;3.964;2023-05-07T02:28:17;9.00;;;7.20;;
18176;SDS011;9213;50.858;3.964;2023-05-07T02:30:44;15.40;;;6.83;;
18176;SDS011;9213;50.858;3.964;2023-05-07T02:33:12;11.03;;;6.97;;
18176;SDS011;9213;50.858;3.964;2023-05-07T02:35:39;12.30;;;6.90;;
18176;SDS011;9213;50.858;3.964;2023-05-07T02:38:06;8.63;;;6.07;;
18176;SDS011;9213;50.858;3.964;2023-05-07T02:40:35;12.67;;;6.97;;
18176;SDS011;9213;50.858;3.964;2023-05-07T02:43:03;9.03;;;6.10;;
18176;SDS011;9213;50.858;3.964;2023-05-07T02:45:31;10.60;;;6.60;;
18176;SDS011;9213;50.858;3.964;2023-05-07T02:47:58;11.10;;;6.47;;
18176;SDS011;9213;50.858;3.964;2023-05-07T02:50:26;10.07;;;6.67;;
18176;SDS011;9213;50.858;3.964;2023-05-07T02:52:53;13.17;;;7.07;;
18176;SDS011;9213;50.858;3.964;2023-05-07T02:55:20;11.20;;;6.63;;
18176;SDS011;9213;50.858;3.964;2023-05-07T02:57:47;11.20;;;6.30;;
18176;SDS011;9213;50.858;3.964;2023-05-07T03:00:15;10.13;;;6.43;;
18176;SDS011;9213;50.858;3.964;2023-05-07T03:02:43;11.97;;;7.20;;
18176;SDS011;9213;50.858;3.964;2023-05-07T03:05:10;12.20;;;7.00;;
18176;SDS011;9213;50.858;3.964;2023-05-07T03:07:39;12.53;;;7.17;;
18176;SDS011;9213;50.858;3.964;2023-05-07T03:10:09;10.47;;;6.70;;
18176;SDS011;9213;50.858;3.964;2023-05-07T03:12:36;12.53;;;7.10;;
18176;SDS011;9213;50.858;3.964;2023-05-07T03:15:04;10.40;;;6.23;;
18176;SDS011;9213;50.858;3.964;2023-05-07T03:17:31;10.90;;;6.73;;
18176;SDS011;9213;50.858;3.964;2023-05-07T03:19:58;12.37;;;7.67;;
18176;SDS011;9213;50.858;3.964;2023-05-07T03:22:25;13.93;;;7.77;;
18176;SDS011;9213;50.858;3.964;2023-05-07T03:24:53;10.30;;;7.00;;
18176;SDS011;9213;50.858;3.964;2023-05-07T03:27:20;13.23;;;6.27;;
18176;SDS011;9213;50.858;3.964;2023-05-07T03:29:47;10.97;;;6.33;;
18176;SDS011;9213;50.858;3.964;2023-05-07T03:32:14;12.73;;;6.30;;
18176;SDS011;9213;50.858;3.964;2023-05-07T03:34:41;11.07;;;6.27;;
18176;SDS011;9213;50.858;3.964;2023-05-07T03:37:08;11.70;;;6.50;;
18176;SDS011;9213;50.858;3.964;2023-05-07T03:39:35;13.63;;;7.20;;
18176;SDS011;9213;50.858;3.964;2023-05-07T03:42:03;11.70;;;6.60;;
18176;SDS011;9213;50.858;3.964;2023-05-07T03:44:30;8.50;;;6.30;;
18176;SDS011;9213;50.858;3.964;2023-05-07T03:46:57;11.53;;;6.20;;
18176;SDS011;9213;50.858;3.964;2023-05-07T03:49:24;8.63;;;6.73;;
18176;SDS011;9213;50.858;3.964;2023-05-07T03:51:51;12.27;;;6.73;;
18176;SDS011;9213;50.858;3.964;2023-05-07T03:54:18;11.17;;;6.27;;
18176;SDS011;9213;50.858;3.964;2023-05-07T03:56:45;15.27;;;6.73;;
18176;SDS011;9213;50.858;3.964;2023-05-07T03:59:13;13.27;;;7.00;;
18176;SDS011;9213;50.858;3.964;2023-05-07T04:01:40;13.43;;;7.00;;
18176;SDS011;9213;50.858;3.964;2023-05-07T04:04:07;10.17;;;6.60;;
18176;SDS011;9213;50.858;3.964;2023-05-07T04:06:34;11.97;;;6.10;;
18176;SDS011;9213;50.858;3.964;2023-05-07T04:09:01;10.47;;;6.80;;
18176;SDS011;9213;50.858;3.964;2023-05-07T04:11:28;12.30;;;7.30;;
18176;SDS011;9213;50.858;3.964;2023-05-07T04:13:55;11.97;;;6.80;;
18176;SDS011;9213;50.858;3.964;2023-05-07T04:16:23;10.73;;;6.27;;
18176;SDS011;9213;50.858;3.964;2023-05-07T04:18:50;10.10;;;6.10;;
18176;SDS011;9213;50.858;3.964;2023-05-07T04:21:17;13.53;;;7.07;;
18176;SDS011;9213;50.858;3.964;2023-05-07T04:23:45;12.60;;;6.50;;
18176;SDS011;9213;50.858;3.964;2023-05-07T04:26:12;13.33;;;6.93;;
18176;SDS011;9213;50.858;3.964;2023-05-07T04:28:39;10.13;;;6.53;;
18176;SDS011;9213;50.858;3.964;2023-05-07T04:31:06;11.43;;;7.10;;
18176;SDS011;9213;50.858;3.964;2023-05-07T04:33:35;14.17;;;6.50;;
18176;SDS011;9213;50.858;3.964;2023-05-07T04:36:02;11.07;;;6.70;;
18176;SDS011;9213;50.858;3.964;2023-05-07T04:38:30;9.03;;;7.07;;
18176;SDS011;9213;50.858;3.964;2023-05-07T04:40:58;12.83;;;7.23;;
18176;SDS011;9213;50.858;3.964;2023-05-07T04:43:29;10.93;;;7.10;;
18176;SDS011;9213;50.858;3.964;2023-05-07T04:45:55;11.37;;;6.47;;
18176;SDS011;9213;50.858;3.964;2023-05-07T04:48:22;11.13;;;7.00;;
18176;SDS011;9213;50.858;3.964;2023-05-07T04:50:51;12.23;;;6.37;;
18176;SDS011;9213;50.858;3.964;2023-05-07T04:53:18;11.00;;;7.20;;
18176;SDS011;9213;50.858;3.964;2023-05-07T04:55:46;11.03;;;7.03;;
18176;SDS011;9213;50.858;3.964;2023-05-07T04:58:13;8.40;;;7.10;;
18176;SDS011;9213;50.858;3.964;2023-05-07T05:00:40;12.03;;;7.00;;
18176;SDS011;9213;50.858;3.964;2023-05-07T05:03:08;12.03;;;7.50;;
18176;SDS011;9213;50.858;3.964;2023-05-07T05:05:36;13.67;;;7.03;;
18176;SDS011;9213;50.858;3.964;2023-05-07T05:08:04;12.53;;;7.63;;
18176;SDS011;9213;50.858;3.964;2023-05-07T05:10:31;13.97;;;6.80;;
18176;SDS011;9213;50.858;3.964;2023-05-07T05:12:58;14.07;;;7.43;;
18176;SDS011;9213;50.858;3.964;2023-05-07T05:15:25;11.93;;;6.63;;
18176;SDS011;9213;50.858;3.964;2023-05-07T05:17:52;12.57;;;7.20;;
18176;SDS011;9213;50.858;3.964;2023-05-07T05:20:19;11.47;;;7.17;;
18176;SDS011;9213;50.858;3.964;2023-05-07T05:22:45;10.97;;;6.30;;
18176;SDS011;9213;50.858;3.964;2023-05-07T05:25:14;12.67;;;7.70;;
18176;SDS011;9213;50.858;3.964;2023-05-07T05:27:41;11.17;;;7.00;;
18176;SDS011;9213;50.858;3.964;2023-05-07T05:30:08;13.43;;;7.00;;
18176;SDS011;9213;50.858;3.964;2023-05-07T05:32:35;15.67;;;7.60;;
18176;SDS011;9213;50.858;3.964;2023-05-07T05:35:02;13.07;;;8.00;;
18176;SDS011;9213;50.858;3.964;2023-05-07T05:37:30;13.60;;;7.77;;
18176;SDS011;9213;50.858;3.964;2023-05-07T05:39:57;15.43;;;8.17;;
18176;SDS011;9213;50.858;3.964;2023-05-07T05:42:26;13.20;;;8.03;;
18176;SDS011;9213;50.858;3.964;2023-05-07T05:44:52;17.27;;;9.00;;
18176;SDS011;9213;50.858;3.964;2023-05-07T05:47:19;16.87;;;9.70;;
18176;SDS011;9213;50.858;3.964;2023-05-07T05:49:46;12.90;;;9.10;;
18176;SDS011;9213;50.858;3.964;2023-05-07T05:52:13;14.13;;;9.33;;
18176;SDS011;9213;50.858;3.964;2023-05-07T05:54:41;18.33;;;9.90;;
18176;SDS011;9213;50.858;3.964;2023-05-07T05:57:08;16.20;;;9.77;;
18176;SDS011;9213;50.858;3.964;2023-05-07T05:59:37;15.17;;;10.30;;
18176;SDS011;9213;50.858;3.964;2023-05-07T06:02:03;12.87;;;9.20;;
18176;SDS011;9213;50.858;3.964;2023-05-07T06:04:30;15.50;;;9.53;;
18176;SDS011;9213;50.858;3.964;2023-05-07T06:06:57;15.30;;;10.50;;
18176;SDS011;9213;50.858;3.964;2023-05-07T06:09:24;16.50;;;9.73;;
18176;SDS011;9213;50.858;3.964;2023-05-07T06:11:51;16.03;;;9.40;;
18176;SDS011;9213;50.858;3.964;2023-05-07T06:14:18;13.90;;;9.80;;
18176;SDS011;9213;50.858;3.964;2023-05-07T06:16:46;11.50;;;8.97;;
18176;SDS011;9213;50.858;3.964;2023-05-07T06:19:13;12.83;;;8.93;;
18176;SDS011;9213;50.858;3.964;2023-05-07T06:21:43;15.93;;;8.83;;
18176;SDS011;9213;50.858;3.964;2023-05-07T06:24:10;16.73;;;8.60;;
18176;SDS011;9213;50.858;3.964;2023-05-07T06:26:36;13.03;;;9.37;;
18176;SDS011;9213;50.858;3.964;2023-05-07T06:29:03;13.33;;;9.47;;
18176;SDS011;9213;50.858;3.964;2023-05-07T06:31:30;19.30;;;10.33;;
18176;SDS011;9213;50.858;3.964;2023-05-07T06:33:59;18.90;;;10.17;;
18176;SDS011;9213;50.858;3.964;2023-05-07T06:36:27;18.43;;;10.00;;
18176;SDS011;9213;50.858;3.964;2023-05-07T06:38:54;21.77;;;10.53;;
18176;SDS011;9213;50.858;3.964;2023-05-07T06:41:21;16.33;;;10.30;;
18176;SDS011;9213;50.858;3.964;2023-05-07T06:43:48;19.57;;;9.83;;
18176;SDS011;9213;50.858;3.964;2023-05-07T06:46:15;15.63;;;9.87;;
18176;SDS011;9213;50.858;3.964;2023-05-07T06:48:42;20.50;;;10.27;;
18176;SDS011;9213;50.858;3.964;2023-05-07T06:51:10;17.83;;;10.17;;
18176;SDS011;9213;50.858;3.964;2023-05-07T06:53:37;16.90;;;10.27;;
18176;SDS011;9213;50.858;3.964;2023-05-07T06:56:04;15.03;;;10.57;;
18176;SDS011;9213;50.858;3.964;2023-05-07T06:58:32;22.83;;;10.97;;
18176;SDS011;9213;50.858;3.964;2023-05-07T07:00:59;15.30;;;9.33;;
18176;SDS011;9213;50.858;3.964;2023-05-07T07:03:26;13.93;;;7.53;;
18176;SDS011;9213;50.858;3.964;2023-05-07T07:05:53;11.60;;;8.07;;
18176;SDS011;9213;50.858;3.964;2023-05-07T07:08:22;14.23;;;7.47;;
18176;SDS011;9213;50.858;3.964;2023-05-07T07:10:48;10.10;;;7.17;;
18176;SDS011;9213;50.858;3.964;2023-05-07T07:13:15;13.20;;;7.73;;
18176;SDS011;9213;50.858;3.964;2023-05-07T07:15:42;13.97;;;7.00;;
18176;SDS011;9213;50.858;3.964;2023-05-07T07:18:10;17.17;;;7.37;;
18176;SDS011;9213;50.858;3.964;2023-05-07T07:20:37;10.70;;;7.73;;
18176;SDS011;9213;50.858;3.964;2023-05-07T07:23:04;12.17;;;6.97;;
18176;SDS011;9213;50.858;3.964;2023-05-07T07:25:32;11.17;;;7.30;;
18176;SDS011;9213;50.858;3.964;2023-05-07T07:27:59;10.60;;;6.07;;
18176;SDS011;9213;50.858;3.964;2023-05-07T07:30:26;11.77;;;6.33;;
18176;SDS011;9213;50.858;3.964;2023-05-07T07:32:53;11.63;;;6.40;;
18176;SDS011;9213;50.858;3.964;2023-05-07T07:35:20;10.90;;;5.97;;
18176;SDS011;9213;50.858;3.964;2023-05-07T07:37:47;12.57;;;6.43;;
18176;SDS011;9213;50.858;3.964;2023-05-07T07:40:15;9.53;;;6.00;;
18176;SDS011;9213;50.858;3.964;2023-05-07T07:42:44;9.87;;;5.80;;
18176;SDS011;9213;50.858;3.964;2023-05-07T07:45:11;9.10;;;5.33;;
18176;SDS011;9213;50.858;3.964;2023-05-07T07:47:38;9.40;;;5.37;;
18176;SDS011;9213;50.858;3.964;2023-05-07T07:50:06;11.20;;;5.43;;
18176;SDS011;9213;50.858;3.964;2023-05-07T07:52:33;10.40;;;4.40;;
18176;SDS011;9213;50.858;3.964;2023-05-07T07:55:00;8.63;;;4.13;;
18176;SDS011;9213;50.858;3.964;2023-05-07T07:57:27;5.20;;;4.23;;
18176;SDS011;9213;50.858;3.964;2023-05-07T07:59:55;6.30;;;4.30;;
18176;SDS011;9213;50.858;3.964;2023-05-07T08:02:22;8.07;;;4.23;;
18176;SDS011;9213;50.858;3.964;2023-05-07T08:04:50;9.43;;;4.47;;
18176;SDS011;9213;50.858;3.964;2023-05-07T08:07:17;14.17;;;4.23;;
18176;SDS011;9213;50.858;3.964;2023-05-07T08:09:45;8.57;;;4.57;;
18176;SDS011;9213;50.858;3.964;2023-05-07T08:12:13;8.73;;;4.10;;
18176;SDS011;9213;50.858;3.964;2023-05-07T08:14:39;4.53;;;3.80;;
18176;SDS011;9213;50.858;3.964;2023-05-07T08:17:08;14.63;;;5.27;;
18176;SDS011;9213;50.858;3.964;2023-05-07T08:19:35;9.10;;;4.50;;
18176;SDS011;9213;50.858;3.964;2023-05-07T08:22:02;12.93;;;4.90;;
18176;SDS011;9213;50.858;3.964;2023-05-07T08:24:30;7.30;;;5.03;;
18176;SDS011;9213;50.858;3.964;2023-05-07T08:26:57;10.73;;;5.60;;
18176;SDS011;9213;50.858;3.964;2023-05-07T08:29:24;8.37;;;5.57;;
18176;SDS011;9213;50.858;3.964;2023-05-07T08:31:51;13.90;;;5.73;;
18176;SDS011;9213;50.858;3.964;2023-05-07T08:34:19;7.03;;;4.90;;
18176;SDS011;9213;50.858;3.964;2023-05-07T08:36:47;10.47;;;5.80;;
18176;SDS011;9213;50.858;3.964;2023-05-07T08:39:14;11.33;;;5.73;;
18176;SDS011;9213;50.858;3.964;2023-05-07T08:41:42;8.80;;;6.57;;
18176;SDS011;9213;50.858;3.964;2023-05-07T08:44:11;15.27;;;6.20;;
18176;SDS011;9213;50.858;3.964;2023-05-07T08:46:40;11.30;;;6.93;;
18176;SDS011;9213;50.858;3.964;2023-05-07T08:49:08;10.40;;;6.57;;
18176;SDS011;9213;50.858;3.964;2023-05-07T08:51:36;10.63;;;6.50;;
18176;SDS011;9213;50.858;3.964;2023-05-07T08:54:04;11.47;;;7.20;;
18176;SDS011;9213;50.858;3.964;2023-05-07T08:56:32;12.80;;;6.73;;
18176;SDS011;9213;50.858;3.964;2023-05-07T08:58:59;10.50;;;6.80;;
18176;SDS011;9213;50.858;3.964;2023-05-07T09:01:26;12.37;;;6.73;;
18176;SDS011;9213;50.858;3.964;2023-05-07T09:03:53;10.80;;;6.97;;
18176;SDS011;9213;50.858;3.964;2023-05-07T09:06:20;8.97;;;5.97;;
18176;SDS011;9213;50.858;3.964;2023-05-07T09:08:52;9.33;;;6.23;;
18176;SDS011;9213;50.858;3.964;2023-05-07T09:11:20;8.67;;;5.87;;
18176;SDS011;9213;50.858;3.964;2023-05-07T09:13:48;9.63;;;5.67;;
18176;SDS011;9213;50.858;3.964;2023-05-07T09:16:20;9.20;;;6.27;;
18176;SDS011;9213;50.858;3.964;2023-05-07T09:18:48;8.83;;;5.57;;
18176;SDS011;9213;50.858;3.964;2023-05-07T09:21:18;8.87;;;6.00;;
18176;SDS011;9213;50.858;3.964;2023-05-07T09:23:47;7.47;;;5.47;;
18176;SDS011;9213;50.858;3.964;2023-05-07T09:26:16;6.60;;;5.57;;
18176;SDS011;9213;50.858;3.964;2023-05-07T09:28:43;13.93;;;5.82;;
18176;SDS011;9213;50.858;3.964;2023-05-07T09:31:11;7.23;;;5.87;;
18176;SDS011;9213;50.858;3.964;2023-05-07T09:33:38;8.83;;;5.53;;
18176;SDS011;9213;50.858;3.964;2023-05-07T09:36:06;6.10;;;5.13;;
18176;SDS011;9213;50.858;3.964;2023-05-07T09:38:35;7.83;;;6.03;;
18176;SDS011;9213;50.858;3.964;2023-05-07T09:41:04;13.50;;;6.97;;
18176;SDS011;9213;50.858;3.964;2023-05-07T09:43:33;9.97;;;7.23;;
18176;SDS011;9213;50.858;3.964;2023-05-07T09:46:06;9.90;;;7.30;;
18176;SDS011;9213;50.858;3.964;2023-05-07T09:48:35;11.03;;;7.13;;
18176;SDS011;9213;50.858;3.964;2023-05-07T09:51:06;10.30;;;7.78;;
18176;SDS011;9213;50.858;3.964;2023-05-07T09:53:47;9.07;;;6.95;;
18176;SDS011;9213;50.858;3.964;2023-05-07T09:56:16;11.23;;;7.63;;
18176;SDS011;9213;50.858;3.964;2023-05-07T09:58:46;11.73;;;7.77;;
18176;SDS011;9213;50.858;3.964;2023-05-07T10:01:14;13.77;;;7.53;;
18176;SDS011;9213;50.858;3.964;2023-05-07T10:03:44;13.00;;;8.02;;
18176;SDS011;9213;50.858;3.964;2023-05-07T10:06:11;9.18;;;7.30;;
18176;SDS011;9213;50.858;3.964;2023-05-07T10:08:40;9.70;;;7.80;;
18176;SDS011;9213;50.858;3.964;2023-05-07T10:11:08;14.07;;;7.67;;
18176;SDS011;9213;50.858;3.964;2023-05-07T10:13:36;8.87;;;7.97;;
18176;SDS011;9213;50.858;3.964;2023-05-07T10:16:05;11.67;;;7.93;;
18176;SDS011;9213;50.858;3.964;2023-05-07T10:18:32;12.43;;;8.18;;
18176;SDS011;9213;50.858;3.964;2023-05-07T10:21:01;11.00;;;7.60;;
18176;SDS011;9213;50.858;3.964;2023-05-07T10:23:33;11.25;;;7.50;;
18176;SDS011;9213;50.858;3.964;2023-05-07T10:26:00;11.50;;;7.37;;
18176;SDS011;9213;50.858;3.964;2023-05-07T10:28:30;8.88;;;7.32;;
18176;SDS011;9213;50.858;3.964;2023-05-07T10:31:10;9.55;;;7.53;;
18176;SDS011;9213;50.858;3.964;2023-05-07T10:33:50;13.52;;;8.52;;
18176;SDS011;9213;50.858;3.964;2023-05-07T10:36:18;11.30;;;8.48;;
18176;SDS011;9213;50.858;3.964;2023-05-07T10:38:47;10.95;;;7.82;;
18176;SDS011;9213;50.858;3.964;2023-05-07T10:41:14;11.93;;;7.87;;
18176;SDS011;9213;50.858;3.964;2023-05-07T10:43:42;8.90;;;7.05;;
18176;SDS011;9213;50.858;3.964;2023-05-07T10:46:16;9.02;;;7.45;;
18176;SDS011;9213;50.858;3.964;2023-05-07T10:51:33;10.27;;;7.75;;
18176;SDS011;9213;50.858;3.964;2023-05-07T10:54:20;9.20;;;7.80;;
18176;SDS011;9213;50.858;3.964;2023-05-07T10:56:47;8.13;;;7.28;;
18176;SDS011;9213;50.858;3.964;2023-05-07T10:59:34;6.72;;;5.68;;
18176;SDS011;9213;50.858;3.964;2023-05-07T11:02:08;9.73;;;7.40;;
18176;SDS011;9213;50.858;3.964;2023-05-07T11:04:36;9.45;;;7.43;;
18176;SDS011;9213;50.858;3.964;2023-05-07T11:09:59;8.57;;;7.78;;
18176;SDS011;9213;50.858;3.964;2023-05-07T11:12:47;9.55;;;7.60;;
18176;SDS011;9213;50.858;3.964;2023-05-07T11:15:34;12.20;;;7.93;;
18176;SDS011;9213;50.858;3.964;2023-05-07T11:18:10;9.20;;;6.20;;
18176;SDS011;9213;50.858;3.964;2023-05-07T11:20:51;8.63;;;6.95;;
18176;SDS011;9213;50.858;3.964;2023-05-07T11:26:27;6.32;;;5.63;;
18176;SDS011;9213;50.858;3.964;2023-05-07T11:28:56;6.50;;;5.90;;
18176;SDS011;9213;50.858;3.964;2023-05-07T11:31:26;6.15;;;5.47;;
18176;SDS011;9213;50.858;3.964;2023-05-07T11:33:56;6.88;;;5.20;;
18176;SDS011;9213;50.858;3.964;2023-05-07T11:36:23;4.80;;;4.30;;
18176;SDS011;9213;50.858;3.964;2023-05-07T11:38:52;5.65;;;4.90;;
18176;SDS011;9213;50.858;3.964;2023-05-07T11:41:19;4.80;;;4.40;;
18176;SDS011;9213;50.858;3.964;2023-05-07T11:43:56;5.88;;;4.78;;
18176;SDS011;9213;50.858;3.964;2023-05-07T11:46:24;5.30;;;4.80;;
18176;SDS011;9213;50.858;3.964;2023-05-07T11:48:51;6.90;;;5.38;;
18176;SDS011;9213;50.858;3.964;2023-05-07T11:51:20;6.18;;;5.13;;
18176;SDS011;9213;50.858;3.964;2023-05-07T11:53:48;6.95;;;6.13;;
18176;SDS011;9213;50.858;3.964;2023-05-07T11:56:15;8.45;;;6.50;;
18176;SDS011;9213;50.858;3.964;2023-05-07T11:58:43;7.53;;;6.72;;
18176;SDS011;9213;50.858;3.964;2023-05-07T12:01:12;9.77;;;7.95;;
18176;SDS011;9213;50.858;3.964;2023-05-07T12:03:40;9.88;;;7.85;;
18176;SDS011;9213;50.858;3.964;2023-05-07T12:06:09;7.70;;;7.00;;
18176;SDS011;9213;50.858;3.964;2023-05-07T12:08:38;11.93;;;8.15;;
18176;SDS011;9213;50.858;3.964;2023-05-07T12:11:09;8.60;;;7.63;;
18176;SDS011;9213;50.858;3.964;2023-05-07T12:13:39;9.07;;;8.15;;
18176;SDS011;9213;50.858;3.964;2023-05-07T12:16:07;9.05;;;8.13;;
18176;SDS011;9213;50.858;3.964;2023-05-07T12:18:34;10.65;;;8.40;;
18176;SDS011;9213;50.858;3.964;2023-05-07T12:21:03;10.65;;;7.75;;
18176;SDS011;9213;50.858;3.964;2023-05-07T12:23:31;10.77;;;8.88;;
18176;SDS011;9213;50.858;3.964;2023-05-07T12:26:00;9.77;;;8.43;;
18176;SDS011;9213;50.858;3.964;2023-05-07T12:28:27;11.48;;;7.63;;
18176;SDS011;9213;50.858;3.964;2023-05-07T12:30:55;9.25;;;7.03;;
18176;SDS011;9213;50.858;3.964;2023-05-07T12:33:24;8.00;;;7.22;;
18176;SDS011;9213;50.858;3.964;2023-05-07T12:35:53;8.35;;;6.65;;
18176;SDS011;9213;50.858;3.964;2023-05-07T12:38:21;7.88;;;7.07;;
18176;SDS011;9213;50.858;3.964;2023-05-07T12:40:49;9.15;;;6.50;;
18176;SDS011;9213;50.858;3.964;2023-05-07T12:43:21;6.90;;;6.07;;
18176;SDS011;9213;50.858;3.964;2023-05-07T12:45:50;9.82;;;6.38;;
18176;SDS011;9213;50.858;3.964;2023-05-07T12:48:19;8.40;;;5.90;;
18176;SDS011;9213;50.858;3.964;2023-05-07T12:50:48;6.57;;;5.53;;
18176;SDS011;9213;50.858;3.964;2023-05-07T12:53:16;6.75;;;5.60;;
18176;SDS011;9213;50.858;3.964;2023-05-07T12:55:43;9.80;;;5.55;;
18176;SDS011;9213;50.858;3.964;2023-05-07T12:58:15;5.07;;;4.57;;
18176;SDS011;9213;50.858;3.964;2023-05-07T13:00:44;8.82;;;5.13;;
18176;SDS011;9213;50.858;3.964;2023-05-07T13:03:17;11.27;;;6.10;;
18176;SDS011;9213;50.858;3.964;2023-05-07T13:05:48;8.52;;;5.75;;
18176;SDS011;9213;50.858;3.964;2023-05-07T13:08:23;10.32;;;7.60;;
18176;SDS011;9213;50.858;3.964;2023-05-07T13:10:51;10.68;;;7.30;;
18176;SDS011;9213;50.858;3.964;2023-05-07T13:13:18;13.20;;;8.05;;
18176;SDS011;9213;50.858;3.964;2023-05-07T13:15:46;11.10;;;8.40;;
18176;SDS011;9213;50.858;3.964;2023-05-07T13:18:13;12.15;;;8.38;;
18176;SDS011;9213;50.858;3.964;2023-05-07T13:20:40;14.30;;;9.57;;
18176;SDS011;9213;50.858;3.964;2023-05-07T13:23:07;14.75;;;9.50;;
18176;SDS011;9213;50.858;3.964;2023-05-07T13:25:34;15.27;;;10.68;;
18176;SDS011;9213;50.858;3.964;2023-05-07T13:28:01;21.95;;;12.55;;
18176;SDS011;9213;50.858;3.964;2023-05-07T13:30:29;16.90;;;12.02;;
18176;SDS011;9213;50.858;3.964;2023-05-07T13:32:57;19.83;;;13.65;;
18176;SDS011;9213;50.858;3.964;2023-05-07T13:35:25;18.05;;;12.40;;
18176;SDS011;9213;50.858;3.964;2023-05-07T13:37:52;20.00;;;14.50;;
18176;SDS011;9213;50.858;3.964;2023-05-07T13:40:19;21.50;;;15.52;;
18176;SDS011;9213;50.858;3.964;2023-05-07T13:42:47;19.83;;;16.02;;
18176;SDS011;9213;50.858;3.964;2023-05-07T13:45:14;17.23;;;15.23;;
18176;SDS011;9213;50.858;3.964;2023-05-07T13:47:41;20.80;;;15.10;;
18176;SDS011;9213;50.858;3.964;2023-05-07T13:50:10;20.48;;;15.48;;
18176;SDS011;9213;50.858;3.964;2023-05-07T13:52:39;22.58;;;15.98;;
18176;SDS011;9213;50.858;3.964;2023-05-07T13:55:08;21.58;;;16.75;;
18176;SDS011;9213;50.858;3.964;2023-05-07T13:57:36;23.13;;;16.27;;
18176;SDS011;9213;50.858;3.964;2023-05-07T14:00:03;22.13;;;17.92;;
18176;SDS011;9213;50.858;3.964;2023-05-07T14:02:31;21.48;;;17.65;;
18176;SDS011;9213;50.858;3.964;2023-05-07T14:04:58;22.80;;;18.45;;
18176;SDS011;9213;50.858;3.964;2023-05-07T14:07:26;21.05;;;16.60;;
18176;SDS011;9213;50.858;3.964;2023-05-07T14:09:53;22.02;;;18.17;;
18176;SDS011;9213;50.858;3.964;2023-05-07T14:12:21;24.00;;;18.45;;
18176;SDS011;9213;50.858;3.964;2023-05-07T14:14:47;23.45;;;18.23;;
18176;SDS011;9213;50.858;3.964;2023-05-07T14:17:15;21.52;;;19.20;;
18176;SDS011;9213;50.858;3.964;2023-05-07T14:19:42;25.08;;;20.20;;
18176;SDS011;9213;50.858;3.964;2023-05-07T14:22:09;23.88;;;20.42;;
18176;SDS011;9213;50.858;3.964;2023-05-07T14:24:37;25.58;;;19.20;;
18176;SDS011;9213;50.858;3.964;2023-05-07T14:27:04;24.75;;;19.45;;
18176;SDS011;9213;50.858;3.964;2023-05-07T14:29:31;27.25;;;20.15;;
18176;SDS011;9213;50.858;3.964;2023-05-07T14:32:00;26.25;;;20.65;;
18176;SDS011;9213;50.858;3.964;2023-05-07T14:34:28;23.83;;;19.08;;
18176;SDS011;9213;50.858;3.964;2023-05-07T14:36:55;24.05;;;18.77;;
18176;SDS011;9213;50.858;3.964;2023-05-07T14:39:22;21.63;;;18.05;;
18176;SDS011;9213;50.858;3.964;2023-05-07T14:41:50;22.90;;;18.50;;
18176;SDS011;9213;50.858;3.964;2023-05-07T14:44:17;25.13;;;18.15;;
18176;SDS011;9213;50.858;3.964;2023-05-07T14:46:44;21.92;;;18.25;;
18176;SDS011;9213;50.858;3.964;2023-05-07T14:49:10;22.08;;;17.80;;
18176;SDS011;9213;50.858;3.964;2023-05-07T14:51:42;21.45;;;17.08;;
18176;SDS011;9213;50.858;3.964;2023-05-07T14:54:09;21.75;;;17.35;;
18176;SDS011;9213;50.858;3.964;2023-05-07T14:56:36;23.58;;;17.40;;
18176;SDS011;9213;50.858;3.964;2023-05-07T14:59:04;22.23;;;16.75;;
18176;SDS011;9213;50.858;3.964;2023-05-07T15:01:31;21.65;;;17.38;;
18176;SDS011;9213;50.858;3.964;2023-05-07T15:04:00;21.48;;;15.95;;